Time;durP1;ratioP1;P1;durP2;ratioP2;P2;SDS_P1;SDS_P2;PMS_P1;PMS_P2;Temp;Humidity;BMP_temperature;BMP_pressure;BME280_temperature;BME280_humidity;BME280_pressure;Samples;Min_cycle;Max_cycle;Signal;HPM_P1;HPM_P2
2023/01/03 00:03:37;;;;;;;5.87;5.27;;;12.80;99.30;;;;;;10376908;28;20246;-81
2023/01/03 00:08:40;;;;;;;2.70;2.50;;;12.80;99.60;;;;;;10345102;28;20195;-81
2023/01/03 00:13:43;;;;;;;2.13;1.93;;;12.80;99.50;;;;;;10323581;28;20199;-81
2023/01/03 00:18:46;;;;;;;1.50;1.40;;;12.80;99.70;;;;;;10322003;28;20207;-81
2023/01/03 00:23:49;;;;;;;1.43;1.37;;;12.80;99.10;;;;;;10338907;28;20254;-81
2023/01/03 00:28:51;;;;;;;1.47;1.40;;;12.80;99.40;;;;;;10323877;28;20290;-81
2023/01/03 00:33:54;;;;;;;1.50;1.40;;;12.70;99.50;;;;;;10363271;28;20245;-80
2023/01/03 00:38:58;;;;;;;2.27;2.17;;;12.70;99.20;;;;;;10378953;28;20202;-81
2023/01/03 00:44:00;;;;;;;5.20;4.70;;;12.70;99.30;;;;;;10377091;28;20225;-81
2023/01/03 00:49:03;;;;;;;2.50;2.30;;;12.70;99.70;;;;;;10357728;28;20195;-81
2023/01/03 00:54:08;;;;;;;2.20;2.10;;;12.70;99.90;;;;;;10364157;28;20258;-81
2023/01/03 00:59:11;;;;;;;2.10;2.00;;;12.70;99.70;;;;;;10372279;28;20647;-80
2023/01/03 01:04:24;;;;;;;2.40;2.30;;;12.70;99.60;;;;;;10358501;28;20805;-79
2023/01/03 01:09:30;;;;;;;2.00;1.90;;;12.70;99.90;;;;;;10365376;28;20691;-81
2023/01/03 01:14:33;;;;;;;3.83;3.63;;;12.60;99.90;;;;;;10379857;23;20230;-81
2023/01/03 01:19:39;;;;;;;2.20;2.10;;;12.60;99.90;;;;;;10432590;28;20653;-78
2023/01/03 01:24:43;;;;;;;2.20;2.10;;;12.60;98.80;;;;;;10400486;28;20230;-80
2023/01/03 01:29:45;;;;;;;2.53;2.43;;;12.50;98.50;;;;;;10409439;28;20540;-80
2023/01/03 01:34:47;;;;;;;2.90;2.50;;;12.40;98.60;;;;;;10375041;28;20226;-79
2023/01/03 01:39:50;;;;;;;2.47;2.37;;;12.10;99.10;;;;;;10406612;28;20229;-80
2023/01/03 01:44:55;;;;;;;2.13;2.03;;;12.00;98.90;;;;;;10405617;28;20236;-78
2023/01/03 01:50:01;;;;;;;2.20;2.10;;;11.90;99.30;;;;;;10403232;28;20259;-81
2023/01/03 01:55:09;;;;;;;2.10;2.00;;;11.80;99.40;;;;;;10404720;28;20264;-79
2023/01/03 02:00:13;;;;;;;2.30;2.20;;;11.70;99.30;;;;;;10384212;28;20198;-80
2023/01/03 02:05:21;;;;;;;2.83;2.63;;;11.60;99.90;;;;;;10361877;28;20234;-78
2023/01/03 02:10:48;;;;;;;2.20;2.10;;;11.60;99.90;;;;;;10402638;28;20225;-80
2023/01/03 02:16:06;;;;;;;14.87;10.57;;;11.50;99.80;;;;;;10404368;28;20344;-80
2023/01/03 02:21:48;;;;;;;2.70;2.60;;;11.50;99.90;;;;;;10403997;28;20190;-80
2023/01/03 02:26:58;;;;;;;4.20;2.40;;;11.40;99.90;;;;;;10361576;28;20222;-80
2023/01/03 02:32:07;;;;;;;5.27;4.27;;;11.40;99.90;;;;;;10382784;28;20190;-79
2023/01/03 02:37:19;;;;;;;2.20;2.10;;;11.40;99.90;;;;;;10407760;28;20218;-79
2023/01/03 02:47:53;;;;;;;2.60;2.40;;;11.30;99.90;;;;;;10403573;28;20258;-79
2023/01/03 02:53:00;;;;;;;2.63;2.43;;;11.10;99.90;;;;;;10405134;28;20204;-80
2023/01/03 02:58:05;;;;;;;3.60;2.30;;;11.00;99.90;;;;;;10413511;28;20237;-80
2023/01/03 03:03:14;;;;;;;2.30;2.20;;;10.90;99.90;;;;;;10412713;28;20228;-79
2023/01/03 03:08:16;;;;;;;2.70;2.30;;;10.90;99.90;;;;;;10409932;28;20249;-80
2023/01/03 03:13:25;;;;;;;2.57;2.37;;;10.80;99.90;;;;;;10407109;28;20201;-81
2023/01/03 03:18:39;;;;;;;2.20;2.10;;;10.70;99.90;;;;;;10416158;28;20222;-82
2023/01/03 03:29:07;;;;;;;2.93;2.63;;;10.50;99.90;;;;;;10421672;28;20205;-80
2023/01/03 03:34:15;;;;;;;2.43;2.33;;;10.60;99.90;;;;;;10432433;28;20260;-80
2023/01/03 03:45:00;;;;;;;2.20;2.10;;;10.60;99.90;;;;;;10374215;28;20763;-80
2023/01/03 03:50:08;;;;;;;2.17;2.07;;;10.60;99.90;;;;;;10405191;28;20198;-80
2023/01/03 03:55:15;;;;;;;2.70;2.10;;;10.60;99.90;;;;;;10411938;28;20586;-80
2023/01/03 04:00:22;;;;;;;4.90;2.60;;;10.50;99.90;;;;;;10411556;28;20582;-80
2023/01/03 04:05:29;;;;;;;3.13;2.97;;;10.40;99.90;;;;;;10406073;28;20313;-80
2023/01/03 04:10:31;;;;;;;3.63;3.33;;;10.30;99.90;;;;;;10412090;28;20186;-80
2023/01/03 04:15:33;;;;;;;3.10;2.83;;;10.20;99.90;;;;;;10409799;28;20317;-80
2023/01/03 04:20:37;;;;;;;2.60;2.50;;;10.20;99.90;;;;;;10411339;28;20240;-79
2023/01/03 04:25:39;;;;;;;2.23;2.10;;;10.20;99.90;;;;;;10404036;28;20238;-80
2023/01/03 04:30:41;;;;;;;2.80;2.70;;;10.20;99.90;;;;;;10388223;28;20224;-80
2023/01/03 04:35:44;;;;;;;2.70;2.60;;;10.10;99.90;;;;;;10406357;28;20275;-80
2023/01/03 04:40:46;;;;;;;2.80;2.70;;;10.00;99.90;;;;;;10409776;28;20229;-80
2023/01/03 04:45:49;;;;;;;2.73;2.53;;;9.90;99.90;;;;;;10403546;28;20219;-80
2023/01/03 04:50:57;;;;;;;2.63;2.50;;;9.70;99.90;;;;;;10390003;28;20198;-79
2023/01/03 04:56:00;;;;;;;6.33;2.60;;;9.70;99.90;;;;;;10398617;28;20206;-79
2023/01/03 05:01:04;;;;;;;3.60;3.40;;;9.60;99.90;;;;;;10387721;28;20226;-80
2023/01/03 05:06:09;;;;;;;2.50;2.40;;;9.60;99.90;;;;;;10404877;28;20237;-80
2023/01/03 05:11:11;;;;;;;2.60;2.40;;;9.50;99.90;;;;;;10409524;28;20194;-79
2023/01/03 05:16:14;;;;;;;3.00;2.80;;;9.50;99.90;;;;;;10406730;28;20268;-79
2023/01/03 05:26:40;;;;;;;2.80;2.60;;;9.50;99.90;;;;;;10374984;28;20293;-81
2023/01/03 05:31:42;;;;;;;3.30;3.00;;;9.50;99.90;;;;;;10399126;28;20359;-79
2023/01/03 05:36:46;;;;;;;2.53;2.43;;;9.50;99.90;;;;;;10405707;28;20225;-79
2023/01/03 05:42:00;;;;;;;4.37;3.97;;;9.50;99.90;;;;;;10405339;28;20217;-80
2023/01/03 05:47:04;;;;;;;25.03;19.40;;;9.60;99.90;;;;;;10428152;28;20257;-80
2023/01/03 05:52:07;;;;;;;27.70;21.20;;;9.50;99.90;;;;;;10400254;28;20671;-79
2023/01/03 05:57:09;;;;;;;15.67;12.60;;;9.50;99.90;;;;;;10370763;28;20242;-79
2023/01/03 06:02:11;;;;;;;10.93;9.83;;;9.50;99.90;;;;;;10390349;28;20202;-79
2023/01/03 06:07:15;;;;;;;7.67;5.70;;;9.50;99.90;;;;;;10396474;28;20242;-80
2023/01/03 06:12:17;;;;;;;8.57;7.73;;;9.50;99.90;;;;;;10428241;28;20541;-79
2023/01/03 06:22:40;;;;;;;6.10;5.43;;;9.40;99.90;;;;;;10392676;28;20222;-79
2023/01/03 06:27:42;;;;;;;4.43;4.13;;;9.40;99.90;;;;;;10386577;28;20297;-79
2023/01/03 06:32:44;;;;;;;2.73;2.60;;;9.30;99.90;;;;;;10386473;28;20512;-79
2023/01/03 06:37:47;;;;;;;4.20;3.83;;;9.30;99.90;;;;;;10395922;28;20252;-79
2023/01/03 06:42:49;;;;;;;3.93;3.63;;;9.20;99.90;;;;;;10390445;28;20221;-79
2023/01/03 06:53:17;;;;;;;3.27;3.07;;;9.20;99.90;;;;;;10388209;28;20210;-77
2023/01/03 06:58:19;;;;;;;4.43;4.07;;;9.10;99.90;;;;;;10372655;28;20290;-79
2023/01/03 07:03:21;;;;;;;3.50;3.30;;;9.00;99.90;;;;;;10383323;28;20600;-78
2023/01/03 07:08:25;;;;;;;3.80;3.50;;;9.00;99.90;;;;;;10380803;28;20215;-79
2023/01/03 07:18:48;;;;;;;3.33;2.23;;;9.10;99.90;;;;;;10392342;28;20285;-80
2023/01/03 07:23:53;;;;;;;3.10;2.90;;;9.10;99.90;;;;;;10391258;28;20215;-79
2023/01/03 07:28:55;;;;;;;2.60;2.50;;;9.00;99.90;;;;;;10397795;28;20202;-79
2023/01/03 07:33:57;;;;;;;3.00;2.80;;;9.10;99.90;;;;;;10440330;28;20198;-79
2023/01/03 07:39:00;;;;;;;3.00;2.67;;;9.00;99.90;;;;;;10386339;28;20198;-79
2023/01/03 07:44:02;;;;;;;2.60;2.50;;;8.90;99.90;;;;;;10395694;28;20682;-79
2023/01/03 07:49:05;;;;;;;3.40;3.13;;;8.90;99.90;;;;;;10393912;28;20249;-79
2023/01/03 07:54:09;;;;;;;3.00;2.90;;;8.90;99.90;;;;;;10414880;28;20221;-79
2023/01/03 07:59:11;;;;;;;4.50;3.20;;;8.90;99.90;;;;;;10395224;28;20225;-79
2023/01/03 08:04:13;;;;;;;2.70;2.60;;;9.00;99.90;;;;;;10383516;28;20563;-82
2023/01/03 08:14:36;;;;;;;2.93;2.83;;;9.20;99.90;;;;;;10391517;28;20253;-79
2023/01/03 08:19:38;;;;;;;2.87;2.70;;;9.40;99.90;;;;;;10416468;28;20355;-78
2023/01/03 08:24:41;;;;;;;2.63;2.43;;;9.40;99.90;;;;;;10379679;28;20404;-79
2023/01/03 08:29:45;;;;;;;5.30;2.93;;;9.50;99.90;;;;;;10409929;28;20198;-79
2023/01/03 08:34:48;;;;;;;2.87;2.67;;;9.70;99.90;;;;;;10376301;28;20218;-79
2023/01/03 08:39:56;;;;;;;3.67;3.43;;;9.80;99.90;;;;;;10376659;28;20198;-80
2023/01/03 08:45:01;;;;;;;2.70;2.60;;;9.90;99.90;;;;;;10378463;28;20226;-80
2023/01/03 08:50:04;;;;;;;3.17;2.90;;;10.00;99.90;;;;;;10414659;28;20191;-80
2023/01/03 08:55:09;;;;;;;3.60;2.53;;;10.10;99.90;;;;;;10376120;28;20293;-81
2023/01/03 09:00:12;;;;;;;2.37;2.27;;;10.10;99.90;;;;;;10391531;28;20206;-82
2023/01/03 09:05:14;;;;;;;2.03;1.63;;;10.20;99.90;;;;;;10378123;28;20248;-82
2023/01/03 09:10:18;;;;;;;1.80;1.70;;;10.30;99.90;;;;;;10413378;28;20210;-80
2023/01/03 09:15:20;;;;;;;3.73;3.37;;;10.40;99.90;;;;;;10414414;28;20641;-80
2023/01/03 09:20:22;;;;;;;4.13;3.70;;;10.60;99.90;;;;;;10413051;28;20432;-82
2023/01/03 09:25:25;;;;;;;6.43;4.77;;;10.70;99.90;;;;;;10415766;28;20230;-82
2023/01/03 09:30:28;;;;;;;7.80;4.23;;;10.80;99.90;;;;;;10416098;28;20198;-78
2023/01/03 09:35:30;;;;;;;5.00;4.50;;;10.90;99.90;;;;;;10398379;28;20224;-78
2023/01/03 09:40:39;;;;;;;5.20;4.53;;;11.00;99.90;;;;;;10421375;28;20236;-79
2023/01/03 09:45:43;;;;;;;4.50;4.10;;;11.10;99.90;;;;;;10414835;28;20230;-79
2023/01/03 09:50:46;;;;;;;4.67;4.27;;;11.20;99.90;;;;;;10418474;28;20693;-79
2023/01/03 10:07:02;;;;;;;4.30;3.97;;;11.40;99.90;;;;;;10398191;28;20235;-80
2023/01/03 10:12:14;;;;;;;5.33;4.00;;;11.50;99.90;;;;;;10411681;28;20595;-79
2023/01/03 10:17:28;;;;;;;4.53;4.13;;;11.50;99.90;;;;;;10379134;28;1069361;-79
2023/01/03 10:22:32;;;;;;;4.60;4.00;;;11.50;99.90;;;;;;10446940;28;20200;-83
2023/01/03 10:27:43;;;;;;;5.67;3.97;;;11.60;99.90;;;;;;10436848;28;20238;-79
2023/01/03 10:33:13;;;;;;;8.03;3.90;;;11.60;99.90;;;;;;10420651;28;20613;-82
2023/01/03 10:38:16;;;;;;;5.10;4.60;;;11.50;99.90;;;;;;10414425;28;20264;-80
2023/01/03 10:43:28;;;;;;;5.13;3.67;;;11.50;99.90;;;;;;10405914;28;20215;-80
2023/01/03 10:48:39;;;;;;;4.40;3.77;;;11.40;99.90;;;;;;10380420;28;20217;-82
2023/01/03 10:53:42;;;;;;;4.50;4.10;;;11.40;99.90;;;;;;10412743;28;20215;-82
2023/01/03 10:58:45;;;;;;;7.80;4.03;;;11.30;99.90;;;;;;10414591;28;20214;-82
2023/01/03 11:04:11;;;;;;;4.90;4.50;;;11.30;99.90;;;;;;10388045;28;20226;-81
2023/01/03 11:09:13;;;;;;;5.57;3.67;;;11.20;99.90;;;;;;10408760;28;20198;-82
2023/01/03 11:14:22;;;;;;;4.10;3.80;;;11.20;99.90;;;;;;10411671;28;20253;-81
2023/01/03 11:19:27;;;;;;;4.20;3.20;;;11.20;99.90;;;;;;10415251;28;20195;-81
2023/01/03 11:24:53;;;;;;;3.83;3.10;;;11.20;99.90;;;;;;10444903;28;20223;-81
2023/01/03 11:30:07;;;;;;;4.27;3.87;;;11.20;99.90;;;;;;10400635;28;20289;-81
2023/01/03 11:35:34;;;;;;;4.33;3.93;;;11.30;99.90;;;;;;10424460;28;20264;-80
2023/01/03 11:40:44;;;;;;;4.80;3.43;;;11.20;99.90;;;;;;10351066;28;20203;-81
2023/01/03 11:46:06;;;;;;;9.00;6.00;;;11.30;99.90;;;;;;10364488;28;20668;-81
2023/01/03 11:51:14;;;;;;;7.40;4.40;;;11.30;99.90;;;;;;10379298;28;20217;-81
2023/01/03 11:56:27;;;;;;;3.37;3.13;;;11.40;99.90;;;;;;10401458;28;20248;-84
2023/01/03 12:01:49;;;;;;;3.90;2.93;;;11.40;99.90;;;;;;10380328;28;20236;-82
2023/01/03 12:07:06;;;;;;;5.20;1.97;;;11.40;99.90;;;;;;10405528;28;20683;-83
2023/01/03 12:12:23;;;;;;;2.77;2.67;;;11.40;99.90;;;;;;10405830;28;20281;-83
2023/01/03 12:17:33;;;;;;;2.70;2.50;;;11.50;99.90;;;;;;10406227;28;20225;-83
2023/01/03 12:22:39;;;;;;;2.60;2.40;;;11.50;99.90;;;;;;10404448;28;20674;-80
2023/01/03 12:27:46;;;;;;;5.10;2.97;;;11.50;99.90;;;;;;10402716;28;20217;-84
2023/01/03 12:32:53;;;;;;;2.10;2.00;;;11.60;99.90;;;;;;10390851;28;20253;-80
2023/01/03 12:37:57;;;;;;;2.60;2.47;;;11.60;99.30;;;;;;10378679;28;20281;-81
2023/01/03 12:43:05;;;;;;;4.23;3.93;;;11.60;99.90;;;;;;10383800;28;20300;-84
2023/01/03 12:48:20;;;;;;;2.57;1.87;;;11.70;98.90;;;;;;10401226;28;20215;-81
2023/01/03 12:53:26;;;;;;;2.20;2.00;;;11.90;99.80;;;;;;10397923;28;20685;-82
2023/01/03 12:58:41;;;;;;;2.37;2.27;;;12.00;98.60;;;;;;10397688;28;20267;-83
2023/01/03 13:03:51;;;;;;;2.33;2.13;;;12.10;99.20;;;;;;10406437;28;20308;-80
2023/01/03 13:08:59;;;;;;;4.60;4.23;;;12.20;98.50;;;;;;10402129;28;20194;-81
2023/01/03 13:14:05;;;;;;;4.90;4.27;;;12.40;98.80;;;;;;10395346;28;20229;-81
2023/01/03 13:19:45;;;;;;;2.50;2.40;;;12.60;97.30;;;;;;10376448;23;20226;-80
2023/01/03 13:24:50;;;;;;;2.40;2.20;;;12.80;96.00;;;;;;10319009;28;20277;-79
2023/01/03 13:29:57;;;;;;;2.30;2.20;;;12.90;95.60;;;;;;10352787;28;20229;-80
2023/01/03 13:35:20;;;;;;;2.60;2.40;;;12.90;96.50;;;;;;10336630;28;20269;-81
2023/01/03 13:40:27;;;;;;;2.13;2.00;;;12.90;96.30;;;;;;10335652;28;20263;-80
2023/01/03 13:45:57;;;;;;;2.40;2.20;;;13.00;97.80;;;;;;10356378;28;20623;-81
2023/01/03 13:51:22;;;;;;;2.60;2.40;;;13.00;96.60;;;;;;10345603;28;20226;-79
2023/01/03 13:56:31;;;;;;;2.53;2.33;;;13.10;96.30;;;;;;10353611;28;20254;-78
2023/01/03 14:01:48;;;;;;;2.43;2.33;;;13.10;97.70;;;;;;10340693;28;20199;-81
2023/01/03 14:07:11;;;;;;;3.60;2.40;;;13.00;95.80;;;;;;10350037;28;20215;-80
2023/01/03 14:12:42;;;;;;;2.57;2.43;;;13.00;95.60;;;;;;10351400;28;20434;-80
2023/01/03 14:17:48;;;;;;;2.80;2.70;;;12.80;95.30;;;;;;10369107;28;20222;-80
2023/01/03 14:22:51;;;;;;;5.53;2.70;;;12.70;95.00;;;;;;10389583;28;20202;-81
2023/01/03 14:27:55;;;;;;;2.10;2.00;;;12.60;95.30;;;;;;10387724;28;20286;-77
2023/01/03 14:32:58;;;;;;;2.40;2.20;;;12.60;96.40;;;;;;10369041;28;20199;-81
2023/01/03 14:38:00;;;;;;;2.40;2.30;;;12.60;96.20;;;;;;10363261;28;20222;-79
2023/01/03 14:43:05;;;;;;;26.03;20.90;;;12.60;95.70;;;;;;10342612;28;20595;-80
2023/01/03 14:48:07;;;;;;;9.60;4.90;;;12.70;94.50;;;;;;10386795;28;20227;-83
2023/01/03 14:53:11;;;;;;;2.40;2.20;;;12.70;97.30;;;;;;10405300;28;20205;-82
2023/01/03 14:58:27;;;;;;;2.20;2.00;;;12.80;95.70;;;;;;10371037;28;20207;-82
2023/01/03 15:03:33;;;;;;;2.53;2.23;;;12.70;95.20;;;;;;10373331;28;20253;-81
2023/01/03 15:08:43;;;;;;;2.73;2.60;;;12.60;95.40;;;;;;10339144;28;20220;-81
2023/01/03 15:13:54;;;;;;;3.83;2.30;;;12.60;95.10;;;;;;10349376;28;20222;-81
2023/01/03 15:19:08;;;;;;;2.73;2.37;;;12.50;96.60;;;;;;10335529;28;20234;-80
2023/01/03 15:24:15;;;;;;;2.50;2.30;;;12.50;96.40;;;;;;10352346;28;20318;-80
2023/01/03 15:29:22;;;;;;;2.10;2.00;;;12.50;96.00;;;;;;10335178;28;20219;-80
2023/01/03 15:34:35;;;;;;;5.00;2.43;;;12.40;96.10;;;;;;10375641;28;20206;-82
2023/01/03 15:39:42;;;;;;;2.57;2.40;;;12.40;95.80;;;;;;10351988;28;20617;-83
2023/01/03 15:44:45;;;;;;;5.90;3.20;;;12.30;96.40;;;;;;10361811;28;20222;-83
2023/01/03 15:49:50;;;;;;;2.20;2.10;;;12.20;96.80;;;;;;10348169;28;20199;-83
2023/01/03 15:54:52;;;;;;;2.23;2.13;;;12.00;96.80;;;;;;10367713;28;20214;-81
2023/01/03 15:59:57;;;;;;;2.77;2.30;;;11.80;97.20;;;;;;10357616;28;20194;-82
2023/01/03 16:04:59;;;;;;;2.90;2.70;;;11.60;97.00;;;;;;10355978;28;20253;-81
2023/01/03 16:10:01;;;;;;;3.63;2.90;;;11.30;97.60;;;;;;10342262;28;20199;-80
2023/01/03 16:15:07;;;;;;;3.53;3.20;;;11.20;97.60;;;;;;10369746;28;20218;-81
2023/01/03 16:20:15;;;;;;;3.57;3.37;;;11.00;97.70;;;;;;10329813;28;20663;-81
2023/01/03 16:25:18;;;;;;;4.43;4.13;;;10.80;98.10;;;;;;10366529;28;20305;-81
2023/01/03 16:30:23;;;;;;;6.27;5.63;;;10.70;98.20;;;;;;10338927;28;20206;-81
2023/01/03 16:35:25;;;;;;;9.73;5.60;;;10.50;98.10;;;;;;10344239;28;20211;-80
2023/01/03 16:40:27;;;;;;;9.23;7.97;;;10.40;98.50;;;;;;10352358;28;20207;-82
2023/01/03 16:45:30;;;;;;;7.97;7.17;;;10.20;98.60;;;;;;10366035;28;20214;-83
2023/01/03 16:50:36;;;;;;;5.13;4.63;;;10.10;98.80;;;;;;10361570;28;20202;-82
2023/01/03 16:55:39;;;;;;;5.80;5.20;;;10.00;99.10;;;;;;10392152;28;20294;-83
2023/01/03 17:00:43;;;;;;;8.83;7.63;;;9.90;99.60;;;;;;10357385;28;20195;-82
2023/01/03 17:05:45;;;;;;;6.90;6.20;;;9.70;99.70;;;;;;10379729;28;20276;-81
2023/01/03 17:10:50;;;;;;;5.50;5.00;;;9.60;99.90;;;;;;10357430;28;20199;-82
2023/01/03 17:15:54;;;;;;;5.57;5.00;;;9.50;99.90;;;;;;10383546;28;20226;-83
2023/01/03 17:20:59;;;;;;;5.70;5.30;;;9.40;99.90;;;;;;10353537;28;20187;-80
2023/01/03 17:26:01;;;;;;;7.07;6.47;;;9.30;99.90;;;;;;10341325;28;20698;-81
2023/01/03 17:31:05;;;;;;;6.70;6.07;;;9.20;99.90;;;;;;10338914;28;20203;-80
2023/01/03 17:36:12;;;;;;;10.63;9.53;;;9.10;99.90;;;;;;10341844;28;20259;-82
2023/01/03 17:41:17;;;;;;;11.17;9.10;;;9.00;99.90;;;;;;10375773;28;20202;-81
2023/01/03 17:51:42;;;;;;;13.07;11.73;;;8.90;99.90;;;;;;10373495;28;20202;-82
2023/01/03 17:56:45;;;;;;;11.60;10.40;;;8.90;99.90;;;;;;10338683;28;20219;-82
2023/01/03 18:01:50;;;;;;;12.33;11.20;;;8.90;99.90;;;;;;10361754;28;20735;-82
2023/01/03 18:06:57;;;;;;;11.80;10.70;;;8.80;99.90;;;;;;10362872;28;20226;-81
2023/01/03 18:11:59;;;;;;;11.23;10.23;;;8.80;99.90;;;;;;10364539;28;20231;-80
2023/01/03 18:17:03;;;;;;;8.70;8.00;;;8.70;99.90;;;;;;10381380;28;20239;-79
2023/01/03 18:22:05;;;;;;;8.30;7.50;;;8.70;99.90;;;;;;10400206;28;20626;-82
2023/01/03 18:27:09;;;;;;;8.70;7.93;;;8.60;99.90;;;;;;10390003;28;20593;-79
2023/01/03 18:32:26;;;;;;;8.40;7.60;;;8.50;99.90;;;;;;10385313;28;20206;-81
2023/01/03 18:37:33;;;;;;;8.30;7.60;;;8.50;99.90;;;;;;10343404;28;20746;-80
2023/01/03 18:47:57;;;;;;;5.47;5.07;;;8.40;99.90;;;;;;10341669;28;20225;-80
2023/01/03 18:53:02;;;;;;;6.30;5.80;;;8.50;99.90;;;;;;10345021;28;20188;-80
2023/01/03 18:58:11;;;;;;;5.17;4.70;;;8.50;99.90;;;;;;10333185;28;20207;-80
2023/01/03 19:03:20;;;;;;;6.77;5.20;;;8.50;99.90;;;;;;10349777;28;20195;-80
2023/01/03 19:08:24;;;;;;;5.43;5.03;;;8.40;99.90;;;;;;10332339;28;20249;-80
2023/01/03 19:13:48;;;;;;;6.10;5.60;;;8.40;99.90;;;;;;10353765;28;20191;-80
2023/01/03 19:18:53;;;;;;;7.50;6.50;;;8.50;99.90;;;;;;10334767;28;20574;-81
2023/01/03 19:24:01;;;;;;;6.27;5.67;;;8.50;99.90;;;;;;10338448;28;20227;-80
2023/01/03 19:29:07;;;;;;;7.57;6.90;;;8.50;99.90;;;;;;10409487;23;20206;-81
2023/01/03 19:34:18;;;;;;;5.90;5.40;;;8.50;99.90;;;;;;10372153;28;20670;-80
2023/01/03 19:39:20;;;;;;;5.57;5.03;;;8.50;99.90;;;;;;10354252;28;20215;-81
2023/01/03 19:44:23;;;;;;;6.53;5.93;;;8.50;99.90;;;;;;10369894;28;20195;-81
2023/01/03 19:49:27;;;;;;;7.07;6.47;;;8.40;99.90;;;;;;10341648;28;20214;-80
2023/01/03 19:54:29;;;;;;;6.77;6.27;;;8.40;99.90;;;;;;10373056;28;20217;-79
2023/01/03 19:59:34;;;;;;;8.87;6.90;;;8.40;99.90;;;;;;10375655;28;20241;-79
2023/01/03 20:04:37;;;;;;;9.90;6.10;;;8.40;99.90;;;;;;10380922;28;20241;-80
2023/01/03 20:09:39;;;;;;;8.23;7.40;;;8.40;99.90;;;;;;10378538;28;20269;-81
2023/01/03 20:14:43;;;;;;;8.27;7.07;;;8.40;99.90;;;;;;10373828;28;20203;-81
2023/01/03 20:19:47;;;;;;;7.87;7.17;;;8.40;99.90;;;;;;10382344;28;20230;-81
2023/01/03 20:24:49;;;;;;;6.60;6.10;;;8.40;99.90;;;;;;10360746;28;20673;-81
2023/01/03 20:29:51;;;;;;;6.90;6.20;;;8.40;99.90;;;;;;10379661;28;20305;-82
2023/01/03 20:34:54;;;;;;;6.50;6.00;;;8.40;99.90;;;;;;10388181;28;20273;-82
2023/01/03 20:39:56;;;;;;;6.67;6.17;;;8.40;99.90;;;;;;10380757;28;20245;-82
2023/01/03 20:44:58;;;;;;;6.67;6.07;;;8.40;99.90;;;;;;10377804;28;20286;-81
2023/01/03 20:50:02;;;;;;;6.33;5.83;;;8.40;99.90;;;;;;10381468;28;20274;-81
2023/01/03 20:55:04;;;;;;;6.53;5.90;;;8.30;99.90;;;;;;10380845;28;20225;-82
2023/01/03 21:00:17;;;;;;;6.30;5.83;;;8.30;99.90;;;;;;10384324;28;20269;-82
2023/01/03 21:05:21;;;;;;;5.73;5.23;;;8.30;99.90;;;;;;10384393;28;20210;-82
2023/01/03 21:10:25;;;;;;;5.87;5.37;;;8.30;99.90;;;;;;10367399;28;20309;-82
2023/01/03 21:15:27;;;;;;;5.93;5.50;;;8.30;99.90;;;;;;10394352;28;20198;-82
2023/01/03 21:20:32;;;;;;;6.07;5.57;;;8.20;99.90;;;;;;10360449;28;20230;-82
2023/01/03 21:25:35;;;;;;;6.90;6.20;;;8.20;99.90;;;;;;10377577;28;20210;-82
2023/01/03 21:30:38;;;;;;;6.60;6.00;;;8.20;99.90;;;;;;10380229;28;20234;-82
2023/01/03 21:35:42;;;;;;;6.57;5.97;;;8.20;99.90;;;;;;10380878;28;20560;-82
2023/01/03 21:40:47;;;;;;;6.50;5.90;;;8.30;99.90;;;;;;10381119;28;20214;-82
2023/01/03 21:45:53;;;;;;;6.93;6.23;;;8.40;99.90;;;;;;10372632;28;20207;-82
2023/01/03 21:50:57;;;;;;;8.00;7.23;;;8.50;99.90;;;;;;10368507;28;20221;-81
2023/01/03 21:55:59;;;;;;;7.23;6.67;;;8.60;99.90;;;;;;10381317;28;20218;-80
2023/01/03 22:01:09;;;;;;;7.73;7.13;;;8.70;99.90;;;;;;10378333;28;20210;-80
2023/01/03 22:06:13;;;;;;;7.50;6.93;;;8.80;99.90;;;;;;10376570;28;20288;-80
2023/01/03 22:11:15;;;;;;;8.00;7.00;;;8.90;99.90;;;;;;10383214;28;20359;-80
2023/01/03 22:16:17;;;;;;;8.60;7.90;;;8.90;99.90;;;;;;10378504;28;20277;-80
2023/01/03 22:21:21;;;;;;;8.60;7.80;;;8.90;99.90;;;;;;10379480;28;20220;-80
2023/01/03 22:26:23;;;;;;;8.87;8.17;;;8.90;99.90;;;;;;10378293;28;20203;-79
2023/01/03 22:31:25;;;;;;;9.47;8.60;;;9.00;99.90;;;;;;10377351;28;20215;-81
2023/01/03 22:36:28;;;;;;;7.53;6.93;;;9.00;99.90;;;;;;10375449;28;20561;-80
2023/01/03 22:41:30;;;;;;;9.17;8.40;;;9.00;99.90;;;;;;10366723;28;20218;-82
2023/01/03 22:46:33;;;;;;;9.10;8.40;;;8.90;99.90;;;;;;10381724;28;20207;-81
2023/01/03 22:51:36;;;;;;;9.03;8.23;;;8.90;99.90;;;;;;10378395;28;20218;-80
2023/01/03 22:56:38;;;;;;;9.83;8.90;;;8.80;99.90;;;;;;10369451;28;20195;-80
2023/01/03 23:01:40;;;;;;;12.87;8.67;;;8.80;99.90;;;;;;10375489;28;20218;-83
2023/01/03 23:06:43;;;;;;;8.53;7.83;;;8.80;99.90;;;;;;10380417;28;20207;-82
2023/01/03 23:22:26;;;;;;;9.80;9.10;;;8.60;99.90;;;;;;10383741;28;20568;-83
2023/01/03 23:27:29;;;;;;;10.53;9.53;;;8.60;99.90;;;;;;10382128;28;20285;-79
2023/01/03 23:32:32;;;;;;;9.43;8.60;;;8.60;99.90;;;;;;10379820;28;20630;-83
2023/01/03 23:37:35;;;;;;;8.90;8.20;;;8.60;99.90;;;;;;10383039;28;20218;-81
2023/01/03 23:42:37;;;;;;;10.00;9.20;;;8.60;99.90;;;;;;10394016;28;20229;-84
2023/01/03 23:47:40;;;;;;;9.63;8.93;;;8.60;99.90;;;;;;10384731;28;20219;-82
2023/01/03 23:52:43;;;;;;;9.90;9.10;;;8.60;99.90;;;;;;10390770;28;20222;-81
2023/01/03 23:57:45;;;;;;;9.43;8.57;;;8.60;99.90;;;;;;10354747;28;20233;-81
